Time;durP1;ratioP1;P1;durP2;ratioP2;P2;SDS_P1;SDS_P2;PMS_P1;PMS_P2;Temp;Humidity;BMP_temperature;BMP_pressure;BME280_temperature;BME280_humidity;BME280_pressure;Samples;Min_cycle;Max_cycle;Signal;HPM_P1;HPM_P2
2024/02/04 00:01:15;;;;;;;4.97;2.00;;;13.60;99.90;;;;;;7389550;19;20034;-73
2024/02/04 00:03:44;;;;;;;6.13;1.33;;;13.60;99.90;;;;;;7388533;19;20017;-73
2024/02/04 00:06:13;;;;;;;3.45;1.60;;;13.60;99.90;;;;;;7390070;19;20023;-74
2024/02/04 00:08:47;;;;;;;9.90;1.50;;;13.60;99.90;;;;;;7391533;19;20099;-73
2024/02/04 00:11:16;;;;;;;9.48;2.13;;;13.60;99.90;;;;;;7413584;19;20381;-73
2024/02/04 00:13:46;;;;;;;6.95;2.33;;;13.60;99.90;;;;;;7391147;19;20018;-73
2024/02/04 00:16:19;;;;;;;4.55;2.35;;;13.60;99.90;;;;;;7390636;19;20022;-73
2024/02/04 00:18:47;;;;;;;6.80;2.60;;;13.60;99.90;;;;;;7390681;19;20011;-73
2024/02/04 00:21:16;;;;;;;12.18;2.80;;;13.60;99.90;;;;;;7390883;19;20013;-73
2024/02/04 00:23:48;;;;;;;12.30;2.58;;;13.60;99.90;;;;;;7388634;19;20010;-74
2024/02/04 00:26:20;;;;;;;7.43;2.08;;;13.60;99.90;;;;;;7412010;19;20055;-73
2024/02/04 00:28:49;;;;;;;7.28;1.60;;;13.50;99.90;;;;;;7389519;19;19999;-73
2024/02/04 00:31:17;;;;;;;11.40;2.25;;;13.50;99.90;;;;;;7388806;19;20031;-74
2024/02/04 00:33:46;;;;;;;19.85;2.45;;;13.40;99.90;;;;;;7391520;19;20010;-73
2024/02/04 00:36:18;;;;;;;9.18;1.88;;;13.40;99.90;;;;;;7392717;19;20002;-74
2024/02/04 00:38:50;;;;;;;4.55;1.67;;;13.30;99.90;;;;;;7391689;19;20010;-73
2024/02/04 00:41:18;;;;;;;7.07;1.88;;;13.30;99.90;;;;;;7414517;19;20027;-73
2024/02/04 00:43:47;;;;;;;7.70;2.35;;;13.20;99.90;;;;;;7390659;19;20010;-73
2024/02/04 00:46:16;;;;;;;9.90;1.70;;;13.30;99.90;;;;;;7385216;19;20064;-73
2024/02/04 00:48:44;;;;;;;4.80;1.67;;;13.30;99.90;;;;;;7384670;19;20075;-73
2024/02/04 00:51:14;;;;;;;4.43;1.60;;;13.40;99.90;;;;;;7383834;19;20343;-73
2024/02/04 00:53:42;;;;;;;3.95;1.67;;;13.30;99.90;;;;;;7383782;19;20007;-73
2024/02/04 00:56:14;;;;;;;2.92;1.70;;;13.30;99.90;;;;;;7405361;19;20019;-73
2024/02/04 00:58:42;;;;;;;;;;;13.20;99.90;;;;;;7384404;19;20032;-74
2024/02/04 01:01:11;;;;;;;10.02;2.08;;;13.20;99.90;;;;;;7382744;19;19988;-73
2024/02/04 01:03:40;;;;;;;3.78;1.60;;;13.20;99.90;;;;;;7385039;19;20006;-72
2024/02/04 01:06:08;;;;;;;5.38;2.10;;;13.30;99.90;;;;;;7382632;19;20023;-73
2024/02/04 01:08:37;;;;;;;7.53;1.85;;;13.30;99.90;;;;;;7405245;19;20062;-72
2024/02/04 01:11:07;;;;;;;10.57;2.40;;;13.30;99.90;;;;;;7383688;19;20010;-73
2024/02/04 01:13:38;;;;;;;7.75;2.10;;;13.40;99.90;;;;;;7381633;19;20053;-73
2024/02/04 01:16:08;;;;;;;16.40;3.00;;;13.40;99.90;;;;;;7382643;19;20007;-73
2024/02/04 01:18:37;;;;;;;7.82;1.90;;;13.40;99.90;;;;;;7381695;19;19998;-73
2024/02/04 01:21:08;;;;;;;13.98;1.95;;;13.40;99.90;;;;;;7383707;19;20022;-73
2024/02/04 01:23:37;;;;;;;6.93;1.98;;;13.40;99.90;;;;;;7405787;19;20010;-74
2024/02/04 01:26:06;;;;;;;9.43;1.77;;;13.50;99.90;;;;;;7381435;19;20010;-74
2024/02/04 01:28:35;;;;;;;13.15;2.13;;;13.40;99.90;;;;;;7382118;19;20023;-74
2024/02/04 01:31:06;;;;;;;13.57;2.90;;;13.40;99.90;;;;;;7381680;19;20003;-73
2024/02/04 01:33:35;;;;;;;6.72;1.88;;;13.50;99.90;;;;;;7380923;19;20074;-73
2024/02/04 01:36:04;;;;;;;7.22;1.77;;;13.40;99.90;;;;;;7383271;19;20070;-74
2024/02/04 01:38:32;;;;;;;8.10;3.15;;;13.40;99.90;;;;;;7404434;19;20016;-72
2024/02/04 01:41:01;;;;;;;14.85;1.95;;;13.50;99.90;;;;;;7380966;19;20082;-74
2024/02/04 01:43:31;;;;;;;6.80;1.85;;;13.50;99.90;;;;;;7381468;19;20020;-73
2024/02/04 01:46:01;;;;;;;8.13;1.80;;;13.40;99.90;;;;;;7379420;19;20006;-73
2024/02/04 01:48:33;;;;;;;4.63;1.83;;;13.40;99.90;;;;;;7382790;19;20085;-73
2024/02/04 01:51:01;;;;;;;;;;;13.40;99.90;;;;;;7383120;19;20260;-73
2024/02/04 01:53:32;;;;;;;9.57;2.05;;;13.40;99.90;;;;;;7404056;19;20066;-73
2024/02/04 01:56:01;;;;;;;5.15;2.42;;;13.40;99.90;;;;;;7382109;19;20114;-73
2024/02/04 01:58:30;;;;;;;9.43;2.30;;;13.40;99.90;;;;;;7380025;19;20066;-73
2024/02/04 02:00:58;;;;;;;14.23;3.15;;;13.40;99.90;;;;;;7381260;19;20014;-73
2024/02/04 02:03:28;;;;;;;9.48;1.80;;;13.40;99.90;;;;;;7382945;19;20007;-73
2024/02/04 02:06:00;;;;;;;6.93;2.30;;;13.50;99.90;;;;;;7380672;19;20011;-74
2024/02/04 02:08:29;;;;;;;6.57;1.95;;;13.50;99.90;;;;;;7405400;19;20283;-75
2024/02/04 02:11:05;;;;;;;13.38;1.88;;;13.50;99.90;;;;;;7380113;19;20007;-73
2024/02/04 02:13:37;;;;;;;10.13;1.67;;;13.50;99.90;;;;;;7379461;19;20019;-73
2024/02/04 02:16:15;;;;;;;7.05;1.80;;;13.50;99.90;;;;;;7379417;19;20143;-74
2024/02/04 02:18:48;;;;;;;7.88;2.00;;;13.50;99.90;;;;;;7379320;19;20386;-73
2024/02/04 02:21:36;;;;;;;10.02;2.55;;;13.50;99.90;;;;;;7379180;19;20010;-74
2024/02/04 02:24:15;;;;;;;5.55;2.45;;;13.50;99.90;;;;;;7380648;19;20019;-74
2024/02/04 02:26:47;;;;;;;6.85;3.22;;;13.50;99.90;;;;;;7400171;19;20037;-74
2024/02/04 02:29:15;;;;;;;9.70;2.80;;;13.60;99.90;;;;;;7379562;19;20429;-74
2024/02/04 02:31:45;;;;;;;7.18;2.67;;;13.60;99.90;;;;;;7380380;19;20028;-74
2024/02/04 02:34:15;;;;;;;9.52;1.80;;;13.60;99.90;;;;;;7378399;19;20002;-75
2024/02/04 02:36:51;;;;;;;5.80;2.10;;;13.60;99.90;;;;;;7376986;19;20015;-73
2024/02/04 02:39:23;;;;;;;7.65;1.60;;;13.60;99.90;;;;;;7378414;19;20284;-74
2024/02/04 02:41:59;;;;;;;12.05;2.22;;;13.60;99.90;;;;;;7381331;19;20071;-73
2024/02/04 02:44:29;;;;;;;8.07;2.25;;;13.60;99.90;;;;;;7400474;19;20369;-73
2024/02/04 02:47:01;;;;;;;6.00;1.98;;;13.60;99.90;;;;;;7380725;19;20006;-73
2024/02/04 02:49:30;;;;;;;7.85;2.78;;;13.60;99.90;;;;;;7376192;19;20014;-73
2024/02/04 02:52:01;;;;;;;5.70;3.15;;;13.60;99.90;;;;;;7380570;19;20066;-74
2024/02/04 02:54:30;;;;;;;6.10;3.03;;;13.60;99.90;;;;;;7387406;19;20023;-74
2024/02/04 02:57:01;;;;;;;5.70;1.67;;;13.60;99.90;;;;;;7383735;19;20006;-74
2024/02/04 02:59:34;;;;;;;;;;;13.60;99.90;;;;;;7408497;19;20014;-73
2024/02/04 03:02:03;;;;;;;10.73;2.35;;;13.70;99.90;;;;;;7387356;19;19924;-74
2024/02/04 03:04:31;;;;;;;4.32;1.65;;;13.60;99.90;;;;;;7383414;19;20003;-74
2024/02/04 03:07:01;;;;;;;8.60;2.10;;;13.60;99.90;;;;;;7385261;19;20003;-73
2024/02/04 03:09:31;;;;;;;8.40;2.78;;;13.60;99.90;;;;;;7385955;19;20017;-74
2024/02/04 03:12:03;;;;;;;12.98;3.55;;;13.60;99.90;;;;;;7387818;19;20060;-73
2024/02/04 03:14:32;;;;;;;10.85;1.48;;;13.60;99.90;;;;;;7404595;19;20078;-74
2024/02/04 03:17:00;;;;;;;5.95;2.85;;;13.60;99.90;;;;;;7385652;19;20021;-74
2024/02/04 03:19:29;;;;;;;4.53;1.85;;;13.60;99.90;;;;;;7390513;19;20027;-74
2024/02/04 03:22:00;;;;;;;4.80;1.70;;;13.60;99.90;;;;;;7394710;19;20019;-74
2024/02/04 03:24:29;;;;;;;5.65;1.80;;;13.60;99.90;;;;;;7396472;19;20027;-74
2024/02/04 03:26:57;;;;;;;5.90;1.80;;;13.60;99.90;;;;;;7391190;19;20046;-74
2024/02/04 03:29:28;;;;;;;10.70;2.08;;;13.50;99.90;;;;;;7417088;19;20007;-72
2024/02/04 03:31:58;;;;;;;6.05;1.63;;;13.50;99.90;;;;;;7385827;19;20082;-73
2024/02/04 03:34:30;;;;;;;15.10;2.30;;;13.50;99.90;;;;;;7382012;19;19999;-74
2024/02/04 03:36:59;;;;;;;11.75;2.28;;;13.50;99.90;;;;;;7380881;19;20070;-73
2024/02/04 03:39:27;;;;;;;5.70;2.97;;;13.50;99.90;;;;;;7381303;19;20062;-74
2024/02/04 03:41:57;;;;;;;11.15;2.67;;;13.50;99.90;;;;;;7388132;19;20167;-74
2024/02/04 03:44:29;;;;;;;6.15;2.00;;;13.50;99.90;;;;;;7402428;19;20006;-74
2024/02/04 03:46:57;;;;;;;6.30;1.98;;;13.50;99.90;;;;;;7381186;19;20079;-74
2024/02/04 03:49:26;;;;;;;7.40;1.90;;;13.50;99.90;;;;;;7380079;19;20430;-73
2024/02/04 03:51:55;;;;;;;8.80;1.65;;;13.50;99.90;;;;;;7383158;19;20074;-73
2024/02/04 03:54:28;;;;;;;4.25;1.73;;;13.50;99.90;;;;;;7380674;19;20081;-73
2024/02/04 03:56:56;;;;;;;3.95;1.27;;;13.50;99.90;;;;;;7406063;19;20106;-73
2024/02/04 03:59:25;;;;;;;7.47;1.90;;;13.50;99.90;;;;;;7380112;19;20009;-74
2024/02/04 04:01:57;;;;;;;7.35;1.90;;;13.50;99.90;;;;;;7381773;19;20023;-74
2024/02/04 04:04:26;;;;;;;6.50;1.80;;;13.50;99.90;;;;;;7380094;19;20002;-75
2024/02/04 04:06:55;;;;;;;9.07;1.70;;;13.50;99.90;;;;;;7381612;19;20073;-74
2024/02/04 04:09:23;;;;;;;5.88;1.67;;;13.50;99.90;;;;;;7379734;19;20011;-74
2024/02/04 04:11:52;;;;;;;4.57;1.65;;;13.50;99.90;;;;;;7405559;19;20390;-74
2024/02/04 04:14:21;;;;;;;7.82;1.55;;;13.50;99.90;;;;;;7380101;19;20056;-74
2024/02/04 04:16:49;;;;;;;4.50;1.85;;;13.50;99.90;;;;;;7382349;19;20027;-73
2024/02/04 04:19:21;;;;;;;3.10;1.40;;;13.60;99.90;;;;;;7380060;19;20397;-74
2024/02/04 04:21:49;;;;;;;3.90;1.67;;;13.40;99.90;;;;;;7381241;19;20315;-73
2024/02/04 04:24:19;;;;;;;4.57;1.30;;;13.40;99.90;;;;;;7379792;19;20023;-74
2024/02/04 04:26:48;;;;;;;4.45;2.00;;;13.40;99.90;;;;;;7401605;19;20007;-73
2024/02/04 04:29:17;;;;;;;8.02;1.58;;;13.40;99.90;;;;;;7379257;19;20026;-73
2024/02/04 04:31:45;;;;;;;5.75;1.30;;;13.50;99.90;;;;;;7381467;19;20011;-73
2024/02/04 04:34:14;;;;;;;3.22;1.08;;;13.50;99.90;;;;;;7379774;19;20066;-73
2024/02/04 04:36:45;;;;;;;5.93;1.23;;;13.50;99.90;;;;;;7381407;19;20006;-73
2024/02/04 04:39:14;;;;;;;6.70;1.30;;;13.50;99.90;;;;;;7380262;19;20014;-73
2024/02/04 04:41:43;;;;;;;3.58;1.33;;;13.50;99.90;;;;;;7400701;19;20717;-75
2024/02/04 04:44:11;;;;;;;8.10;1.90;;;13.50;99.90;;;;;;7379664;19;20013;-74
2024/02/04 04:46:41;;;;;;;10.18;2.30;;;13.50;99.90;;;;;;7380066;19;20014;-73
2024/02/04 04:49:10;;;;;;;4.32;2.03;;;13.60;99.90;;;;;;7378899;19;20013;-74
2024/02/04 04:51:38;;;;;;;6.32;1.20;;;13.60;99.90;;;;;;7380564;19;20500;-73
2024/02/04 04:54:10;;;;;;;2.53;1.05;;;13.60;99.90;;;;;;7382890;19;20015;-73
2024/02/04 04:56:41;;;;;;;4.32;1.27;;;13.60;99.90;;;;;;7399719;19;20010;-74
2024/02/04 04:59:10;;;;;;;6.50;1.77;;;13.50;99.90;;;;;;7377960;19;20023;-74
2024/02/04 05:01:38;;;;;;;8.35;1.10;;;13.50;99.90;;;;;;7380591;19;20392;-74
2024/02/04 05:04:07;;;;;;;2.55;1.35;;;13.50;99.90;;;;;;7378491;19;20081;-74
2024/02/04 05:06:36;;;;;;;9.45;1.65;;;13.50;99.90;;;;;;7379081;19;20370;-73
2024/02/04 05:09:04;;;;;;;4.28;1.40;;;13.60;99.90;;;;;;7401034;19;20010;-73
2024/02/04 05:11:36;;;;;;;10.23;1.27;;;13.40;99.90;;;;;;7379634;19;20401;-73
2024/02/04 05:14:04;;;;;;;4.03;1.60;;;13.50;99.90;;;;;;7376343;19;20638;-73
2024/02/04 05:16:33;;;;;;;3.75;1.90;;;13.50;99.90;;;;;;7380107;19;20010;-73
2024/02/04 05:19:02;;;;;;;3.83;1.60;;;13.50;99.90;;;;;;7380658;19;20019;-73
2024/02/04 05:21:32;;;;;;;10.50;1.40;;;13.50;99.90;;;;;;7378147;19;20014;-73
2024/02/04 05:24:01;;;;;;;3.35;1.25;;;13.60;99.90;;;;;;7403282;19;20010;-73
2024/02/04 05:26:29;;;;;;;3.55;1.40;;;13.60;99.90;;;;;;7376324;19;20408;-73
2024/02/04 05:29:00;;;;;;;4.07;1.20;;;13.50;99.90;;;;;;7377643;19;20023;-74
2024/02/04 05:31:29;;;;;;;2.83;1.30;;;13.50;99.90;;;;;;7379897;19;20167;-74
2024/02/04 05:33:59;;;;;;;7.57;1.73;;;13.40;99.90;;;;;;7379156;19;20070;-74
2024/02/04 05:36:27;;;;;;;5.63;3.20;;;13.50;99.90;;;;;;7378028;19;20162;-74
2024/02/04 05:38:56;;;;;;;4.38;1.73;;;13.50;99.90;;;;;;7399411;19;20362;-74
2024/02/04 05:41:25;;;;;;;6.28;2.20;;;13.50;99.90;;;;;;7376882;19;20027;-74
2024/02/04 05:43:53;;;;;;;11.65;1.70;;;13.50;99.90;;;;;;7376399;19;20058;-74
2024/02/04 05:46:24;;;;;;;7.20;1.40;;;13.50;99.90;;;;;;7378428;19;20078;-74
2024/02/04 05:48:53;;;;;;;2.05;1.10;;;13.50;99.90;;;;;;7377739;19;20003;-73
2024/02/04 05:51:22;;;;;;;2.65;1.10;;;13.60;99.90;;;;;;7378043;19;20079;-73
2024/02/04 05:53:50;;;;;;;5.82;1.38;;;13.60;99.90;;;;;;7398787;19;20074;-73
2024/02/04 05:56:20;;;;;;;4.53;2.00;;;13.50;99.90;;;;;;7375557;19;20361;-73
2024/02/04 05:58:49;;;;;;;4.47;1.15;;;13.50;99.90;;;;;;7378808;19;20027;-74
2024/02/04 06:01:18;;;;;;;3.03;1.20;;;13.50;99.90;;;;;;7381986;19;20043;-74
2024/02/04 06:03:50;;;;;;;5.15;2.05;;;13.40;99.90;;;;;;7382776;19;20007;-75
2024/02/04 06:06:20;;;;;;;7.63;1.10;;;13.30;99.90;;;;;;7383685;19;20500;-74
2024/02/04 06:08:49;;;;;;;3.75;1.40;;;13.30;99.90;;;;;;7405936;19;20010;-75
2024/02/04 06:11:18;;;;;;;5.63;1.50;;;13.40;99.90;;;;;;7383021;19;20063;-74
2024/02/04 06:13:48;;;;;;;10.27;1.70;;;13.40;99.90;;;;;;7382921;19;19999;-74
2024/02/04 06:16:16;;;;;;;3.08;1.20;;;13.40;99.90;;;;;;7375935;19;20062;-74
2024/02/04 06:18:45;;;;;;;8.07;1.60;;;13.40;99.90;;;;;;7376428;19;20007;-75
2024/02/04 06:21:16;;;;;;;3.38;1.60;;;13.40;99.90;;;;;;7399790;19;20305;-74
2024/02/04 06:23:46;;;;;;;3.53;2.30;;;13.40;99.90;;;;;;7375804;19;20277;-74
2024/02/04 06:26:15;;;;;;;3.35;1.67;;;13.40;99.90;;;;;;7380819;19;20119;-74
2024/02/04 06:28:46;;;;;;;3.60;1.63;;;13.40;99.90;;;;;;7383165;19;20015;-74
2024/02/04 06:31:16;;;;;;;7.20;1.40;;;13.50;99.90;;;;;;7387346;19;20021;-74
2024/02/04 06:33:45;;;;;;;10.32;1.17;;;13.50;99.90;;;;;;7384066;19;20011;-74
2024/02/04 06:36:16;;;;;;;5.30;1.02;;;13.50;99.90;;;;;;7406598;19;20010;-73
2024/02/04 06:38:44;;;;;;;1.30;0.80;;;13.40;99.90;;;;;;7383124;19;20674;-73
2024/02/04 06:41:15;;;;;;;1.85;1.13;;;13.30;99.90;;;;;;7383719;19;20003;-73
2024/02/04 06:43:44;;;;;;;7.75;1.20;;;13.30;99.90;;;;;;7385520;19;20058;-73
2024/02/04 06:46:13;;;;;;;5.38;1.45;;;13.30;99.90;;;;;;7383783;19;20066;-74
2024/02/04 06:48:41;;;;;;;3.85;1.75;;;13.30;99.90;;;;;;7382972;19;20078;-74
2024/02/04 06:51:10;;;;;;;7.15;1.33;;;13.40;99.90;;;;;;7405971;19;20015;-74
2024/02/04 06:53:41;;;;;;;3.75;1.05;;;13.40;99.90;;;;;;7382166;19;20378;-73
2024/02/04 06:56:10;;;;;;;1.38;0.95;;;13.40;99.90;;;;;;7383537;19;20223;-73
2024/02/04 06:58:40;;;;;;;6.22;1.15;;;13.30;99.90;;;;;;7384832;19;20010;-74
2024/02/04 07:01:09;;;;;;;2.20;1.10;;;13.30;99.90;;;;;;7383630;19;20003;-74
2024/02/04 07:03:37;;;;;;;3.63;1.20;;;13.30;99.90;;;;;;7386136;19;20079;-74
2024/02/04 07:06:07;;;;;;;2.05;1.15;;;13.30;99.90;;;;;;7405353;19;20013;-74
2024/02/04 07:08:38;;;;;;;7.50;1.10;;;13.30;99.90;;;;;;7383409;19;20010;-73
2024/02/04 07:11:10;;;;;;;1.33;1.10;;;13.30;99.90;;;;;;7384805;19;20059;-73
2024/02/04 07:13:40;;;;;;;;;;;13.40;99.90;;;;;;7384671;19;20488;-72
2024/02/04 07:16:09;;;;;;;3.80;1.33;;;13.50;99.90;;;;;;7385256;19;19956;-73
2024/02/04 07:18:38;;;;;;;7.65;1.17;;;13.40;99.90;;;;;;7384516;19;20298;-73
2024/02/04 07:21:07;;;;;;;3.70;1.30;;;13.40;99.90;;;;;;7404513;19;20006;-73
2024/02/04 07:23:36;;;;;;;8.50;1.58;;;13.40;99.90;;;;;;7384077;19;20021;-74
2024/02/04 07:26:04;;;;;;;1.95;1.23;;;13.40;99.90;;;;;;7381412;19;20002;-74
2024/02/04 07:28:35;;;;;;;5.68;1.58;;;13.40;99.90;;;;;;7381297;19;20272;-74
2024/02/04 07:31:04;;;;;;;5.50;1.63;;;13.40;99.90;;;;;;7380254;19;20073;-74
2024/02/04 07:33:33;;;;;;;1.48;1.10;;;13.40;99.90;;;;;;7382130;19;20058;-74
2024/02/04 07:36:01;;;;;;;5.53;1.20;;;13.40;99.90;;;;;;7402800;19;20010;-73
2024/02/04 07:38:32;;;;;;;2.03;1.08;;;13.40;99.90;;;;;;7379882;19;20323;-74
2024/02/04 07:41:02;;;;;;;6.38;1.33;;;13.40;99.90;;;;;;7381020;19;20016;-73
2024/02/04 07:43:31;;;;;;;2.53;1.20;;;13.40;99.90;;;;;;7382025;19;20003;-74
2024/02/04 07:46:02;;;;;;;3.90;1.40;;;13.50;99.90;;;;;;7382515;19;20003;-74
2024/02/04 07:48:30;;;;;;;4.90;1.38;;;13.50;99.90;;;;;;7379943;19;20062;-73
2024/02/04 07:50:59;;;;;;;4.78;1.48;;;13.50;99.90;;;;;;7403061;19;20435;-73
2024/02/04 07:53:29;;;;;;;2.63;1.20;;;13.50;99.90;;;;;;7381458;19;20390;-73
2024/02/04 07:55:58;;;;;;;8.13;3.97;;;13.60;99.90;;;;;;7381088;19;19999;-74
2024/02/04 07:58:30;;;;;;;4.93;1.25;;;13.60;99.90;;;;;;7383243;19;20023;-73
2024/02/04 08:00:58;;;;;;;4.82;1.55;;;13.50;99.90;;;;;;7382865;19;20058;-74
2024/02/04 08:03:30;;;;;;;2.88;1.48;;;13.60;99.90;;;;;;7403833;19;20236;-74
2024/02/04 08:06:00;;;;;;;2.45;1.65;;;13.60;99.90;;;;;;7383598;19;20011;-74
2024/02/04 08:08:29;;;;;;;3.45;1.30;;;13.60;99.90;;;;;;7379886;19;20053;-74
2024/02/04 08:10:59;;;;;;;5.70;1.52;;;13.40;99.90;;;;;;7382864;19;20027;-74
2024/02/04 08:13:32;;;;;;;3.63;1.35;;;13.40;99.90;;;;;;7381599;19;20038;-74
2024/02/04 08:16:06;;;;;;;1.60;1.40;;;13.50;99.90;;;;;;7381196;19;20384;-75
2024/02/04 08:18:37;;;;;;;2.47;1.60;;;13.50;99.90;;;;;;7380860;19;20007;-73
2024/02/04 08:21:07;;;;;;;5.10;1.85;;;13.40;99.90;;;;;;7403420;19;20070;-73
2024/02/04 08:23:35;;;;;;;2.97;1.33;;;13.40;99.90;;;;;;7380173;19;20006;-74
2024/02/04 08:26:04;;;;;;;2.30;1.20;;;13.40;99.90;;;;;;7381961;19;20074;-74
2024/02/04 08:28:33;;;;;;;6.93;1.48;;;13.40;99.90;;;;;;7382129;19;20082;-73
2024/02/04 08:31:01;;;;;;;4.30;1.70;;;13.40;99.90;;;;;;7381566;19;20010;-75
2024/02/04 08:33:32;;;;;;;7.10;2.70;;;13.50;99.90;;;;;;7391190;19;20010;-75
2024/02/04 08:36:05;;;;;;;6.10;2.10;;;13.50;99.90;;;;;;7404861;19;20015;-74
2024/02/04 08:38:35;;;;;;;5.45;1.83;;;13.50;99.90;;;;;;7379494;19;20059;-74
2024/02/04 08:41:01;;;;;;;3.03;1.35;;;13.30;99.90;;;;;;7379739;19;20023;-73
2024/02/04 08:43:30;;;;;;;3.72;1.30;;;13.40;99.90;;;;;;7380570;19;20007;-74
2024/02/04 08:45:58;;;;;;;3.30;1.30;;;13.30;99.90;;;;;;7384556;19;20102;-74
2024/02/04 08:48:29;;;;;;;1.27;1.17;;;13.40;99.90;;;;;;7413798;19;20295;-74
2024/02/04 08:51:00;;;;;;;4.03;1.30;;;13.40;99.90;;;;;;7390138;19;20011;-75
2024/02/04 08:53:31;;;;;;;2.73;1.30;;;13.50;99.90;;;;;;7391100;19;20015;-74
2024/02/04 08:56:00;;;;;;;5.25;2.25;;;13.50;99.90;;;;;;7388123;19;19999;-74
2024/02/04 08:58:28;;;;;;;3.30;1.02;;;13.60;99.90;;;;;;7390454;19;20070;-73
2024/02/04 09:00:59;;;;;;;4.30;1.10;;;13.50;99.90;;;;;;7387729;19;20022;-73
2024/02/04 09:03:29;;;;;;;2.58;1.52;;;13.60;99.90;;;;;;7402626;19;20010;-73
2024/02/04 09:05:58;;;;;;;4.68;1.50;;;13.60;99.90;;;;;;7378641;19;20599;-74
2024/02/04 09:08:26;;;;;;;6.82;3.42;;;13.50;99.90;;;;;;7379730;19;20013;-74
2024/02/04 09:10:58;;;;;;;3.83;1.42;;;13.60;99.90;;;;;;7378990;19;20054;-73
2024/02/04 09:13:26;;;;;;;3.33;1.17;;;13.60;99.90;;;;;;7382212;19;20066;-74
2024/02/04 09:15:56;;;;;;;1.38;0.98;;;13.30;99.90;;;;;;7381340;19;20066;-73
2024/02/04 09:18:25;;;;;;;3.97;1.42;;;13.50;99.90;;;;;;7400715;19;20010;-74
2024/02/04 09:20:58;;;;;;;2.40;1.20;;;13.50;99.90;;;;;;7379122;19;20006;-73
2024/02/04 09:23:26;;;;;;;3.22;1.20;;;13.40;99.90;;;;;;7379208;19;20014;-73
2024/02/04 09:25:57;;;;;;;2.35;0.95;;;13.50;99.90;;;;;;7366653;19;20010;-73
2024/02/04 09:28:26;;;;;;;2.03;1.17;;;13.60;99.90;;;;;;7377858;19;20024;-73
2024/02/04 09:30:55;;;;;;;2.42;1.15;;;13.60;99.90;;;;;;7380342;19;20070;-73
2024/02/04 09:33:24;;;;;;;1.42;1.10;;;13.70;99.90;;;;;;7400212;19;20291;-74
2024/02/04 09:35:52;;;;;;;4.57;2.17;;;13.80;99.90;;;;;;7377711;19;20118;-74
2024/02/04 09:38:23;;;;;;;1.52;1.00;;;13.80;99.90;;;;;;7378133;19;20466;-73
2024/02/04 09:40:51;;;;;;;1.77;0.93;;;13.90;99.90;;;;;;7380135;19;20006;-74
2024/02/04 09:43:23;;;;;;;2.38;1.00;;;13.70;99.90;;;;;;7378050;19;20042;-73
2024/02/04 09:45:52;;;;;;;3.60;0.70;;;13.80;99.90;;;;;;7378312;19;20027;-74
2024/02/04 09:48:23;;;;;;;5.03;1.10;;;13.90;99.90;;;;;;7397522;19;20007;-74
2024/02/04 09:50:52;;;;;;;;;;;13.90;99.90;;;;;;7377265;19;20006;-74
2024/02/04 09:53:28;;;;;;;4.88;1.20;;;14.00;99.90;;;;;;7377571;19;19918;-73
2024/02/04 09:56:00;;;;;;;2.22;1.30;;;14.00;99.90;;;;;;7379084;19;20003;-73
2024/02/04 09:58:31;;;;;;;7.18;0.90;;;14.00;99.90;;;;;;7379302;19;20010;-74
2024/02/04 10:01:02;;;;;;;1.55;0.93;;;13.90;99.90;;;;;;7378664;19;20074;-73
2024/02/04 10:03:31;;;;;;;4.15;0.80;;;13.90;99.90;;;;;;7406401;19;20006;-75
2024/02/04 10:05:59;;;;;;;1.25;0.80;;;13.90;99.90;;;;;;7385513;19;20063;-74
2024/02/04 10:08:28;;;;;;;0.50;0.50;;;13.90;99.90;;;;;;7379237;19;20442;-74
2024/02/04 10:10:57;;;;;;;2.60;0.70;;;13.80;99.90;;;;;;7388326;19;20027;-74
2024/02/04 10:13:27;;;;;;;0.80;0.60;;;13.90;99.90;;;;;;7386851;19;20776;-74
2024/02/04 10:15:59;;;;;;;1.58;0.63;;;13.90;99.90;;;;;;7388375;19;20102;-74
2024/02/04 10:18:27;;;;;;;1.88;0.50;;;14.00;99.90;;;;;;7407031;19;20021;-74
2024/02/04 10:20:56;;;;;;;2.70;0.82;;;14.00;99.90;;;;;;7388454;19;20003;-73
2024/02/04 10:23:25;;;;;;;1.48;0.55;;;14.00;99.90;;;;;;7387725;19;20062;-73
2024/02/04 10:26:01;;;;;;;1.52;0.80;;;14.10;99.90;;;;;;7388698;19;20397;-73
2024/02/04 10:28:29;;;;;;;0.98;0.57;;;13.80;99.90;;;;;;7386031;19;20031;-75
2024/02/04 10:31:01;;;;;;;1.48;0.68;;;13.90;99.90;;;;;;7388545;19;20027;-74
2024/02/04 10:33:32;;;;;;;0.57;0.50;;;14.00;99.90;;;;;;7411168;19;20079;-74
2024/02/04 10:36:00;;;;;;;;;;;14.00;99.90;;;;;;7388732;19;20690;-74
2024/02/04 10:38:29;;;;;;;1.48;0.60;;;14.00;99.90;;;;;;7386802;19;19935;-74
2024/02/04 10:40:58;;;;;;;0.77;0.52;;;14.00;99.90;;;;;;7387387;19;20066;-73
2024/02/04 10:43:29;;;;;;;0.80;0.63;;;13.90;99.90;;;;;;7387074;19;20016;-75
2024/02/04 10:46:03;;;;;;;1.45;0.57;;;13.90;99.90;;;;;;7388398;19;20031;-74
2024/02/04 10:48:41;;;;;;;0.68;0.40;;;14.00;99.90;;;;;;7408125;19;20018;-74
2024/02/04 10:51:15;;;;;;;1.45;0.70;;;13.80;99.90;;;;;;7388310;19;20019;-74
2024/02/04 10:53:45;;;;;;;5.00;0.90;;;13.80;99.90;;;;;;7387594;19;20069;-74
2024/02/04 10:56:23;;;;;;;1.65;0.75;;;13.70;99.90;;;;;;7387209;19;20376;-74
2024/02/04 10:58:51;;;;;;;2.13;0.60;;;13.60;99.90;;;;;;7388414;19;20017;-74
2024/02/04 11:01:26;;;;;;;0.75;0.60;;;13.70;99.90;;;;;;7386992;19;20284;-74
2024/02/04 11:03:56;;;;;;;1.38;0.65;;;13.80;99.90;;;;;;7388517;19;20011;-74
2024/02/04 11:06:26;;;;;;;0.73;0.47;;;14.00;99.90;;;;;;7409242;19;20009;-73
2024/02/04 11:08:56;;;;;;;0.38;0.30;;;14.00;99.90;;;;;;7385520;19;20020;-74
2024/02/04 11:11:26;;;;;;;3.78;0.52;;;14.10;99.90;;;;;;7384976;19;20043;-75
2024/02/04 11:13:59;;;;;;;3.43;0.40;;;14.00;99.90;;;;;;7384103;19;20003;-74
2024/02/04 11:16:45;;;;;;;1.55;0.40;;;13.80;99.90;;;;;;7387316;19;20283;-74
2024/02/04 11:19:31;;;;;;;0.90;0.55;;;13.80;99.90;;;;;;7387739;19;20306;-74
2024/02/04 11:22:20;;;;;;;4.22;0.52;;;13.70;99.90;;;;;;7387397;19;20034;-74
2024/02/04 11:25:11;;;;;;;1.65;0.57;;;13.70;99.90;;;;;;7409526;19;20028;-76
2024/02/04 11:27:40;;;;;;;0.87;0.40;;;13.70;99.90;;;;;;7385557;19;20011;-73
2024/02/04 11:30:10;;;;;;;1.98;0.45;;;13.80;99.90;;;;;;7385150;19;20276;-74
2024/02/04 11:32:42;;;;;;;1.48;0.60;;;13.90;99.90;;;;;;7385281;19;20373;-74
2024/02/04 11:35:13;;;;;;;0.88;0.50;;;13.70;99.90;;;;;;7384039;19;20007;-73
2024/02/04 11:37:45;;;;;;;0.50;0.50;;;13.80;99.90;;;;;;7386793;19;20014;-73
2024/02/04 11:40:18;;;;;;;;;;;13.80;99.90;;;;;;7392712;19;20268;-74
2024/02/04 11:42:50;;;;;;;1.02;0.70;;;13.90;99.90;;;;;;7419672;19;19983;-74
2024/02/04 11:45:19;;;;;;;0.45;0.45;;;14.00;99.90;;;;;;7394977;19;20010;-74
2024/02/04 11:47:50;;;;;;;2.35;0.45;;;14.00;99.90;;;;;;7393951;19;20011;-74
2024/02/04 11:50:32;;;;;;;0.30;0.30;;;13.90;99.90;;;;;;7394759;19;20006;-73
2024/02/04 11:53:09;;;;;;;0.40;0.40;;;13.70;99.90;;;;;;7392892;19;20024;-74
2024/02/04 11:55:38;;;;;;;0.40;0.40;;;13.80;99.90;;;;;;7387167;19;20023;-75
2024/02/04 11:58:09;;;;;;;0.40;0.40;;;13.80;99.90;;;;;;7387708;19;20365;-74
2024/02/04 12:00:38;;;;;;;1.13;0.60;;;13.70;99.90;;;;;;7406804;19;20011;-74
2024/02/04 12:03:11;;;;;;;1.38;0.70;;;13.90;99.90;;;;;;7384985;19;20069;-74
2024/02/04 12:05:40;;;;;;;0.63;0.50;;;13.90;99.90;;;;;;7388259;19;20381;-74
2024/02/04 12:08:10;;;;;;;2.78;0.40;;;13.90;99.90;;;;;;7406586;19;20007;-74
2024/02/04 12:10:39;;;;;;;0.65;0.45;;;13.80;99.90;;;;;;7385534;19;20276;-73
2024/02/04 12:13:09;;;;;;;1.10;0.40;;;13.70;99.90;;;;;;7384805;19;20010;-73
2024/02/04 12:15:38;;;;;;;0.30;0.22;;;13.50;99.90;;;;;;7383300;19;20014;-73
2024/02/04 12:18:14;;;;;;;2.47;0.35;;;13.60;99.90;;;;;;7385051;19;20064;-74
2024/02/04 12:20:43;;;;;;;2.05;0.60;;;13.80;99.90;;;;;;7386222;19;20025;-75
2024/02/04 12:23:11;;;;;;;1.10;0.38;;;13.90;99.90;;;;;;7405530;19;20014;-75
2024/02/04 12:25:40;;;;;;;0.85;0.22;;;13.60;99.90;;;;;;7383088;19;20257;-75
2024/02/04 12:28:09;;;;;;;0.50;0.50;;;13.60;99.90;;;;;;7383878;19;20105;-73
2024/02/04 12:30:38;;;;;;;0.38;0.38;;;13.80;99.90;;;;;;7384146;19;20006;-73
2024/02/04 12:33:12;;;;;;;4.38;0.45;;;13.60;99.90;;;;;;7383054;19;20417;-72
2024/02/04 12:35:41;;;;;;;0.95;0.30;;;13.70;99.90;;;;;;7407124;19;20007;-73
2024/02/04 12:38:09;;;;;;;1.15;0.45;;;13.70;99.90;;;;;;7383356;19;20010;-73
2024/02/04 12:40:38;;;;;;;6.13;0.50;;;13.40;99.90;;;;;;7384573;19;20015;-74
2024/02/04 12:43:09;;;;;;;0.20;0.20;;;13.40;99.90;;;;;;7383044;19;20078;-72
2024/02/04 12:45:38;;;;;;;0.50;0.50;;;13.40;99.90;;;;;;7406320;19;20516;-74
2024/02/04 12:48:07;;;;;;;0.40;0.28;;;13.40;99.90;;;;;;7361594;19;20280;-73
2024/02/04 12:50:40;;;;;;;1.50;0.50;;;13.50;99.90;;;;;;7385116;19;20007;-74
2024/02/04 12:53:11;;;;;;;0.65;0.43;;;13.50;99.90;;;;;;7385008;19;20342;-74
2024/02/04 12:55:42;;;;;;;0.30;0.30;;;13.60;99.90;;;;;;7384053;19;20019;-74
2024/02/04 12:58:14;;;;;;;1.30;0.40;;;13.50;99.90;;;;;;7405546;19;20010;-75
2024/02/04 13:00:43;;;;;;;0.50;0.50;;;13.40;99.90;;;;;;7384650;19;20006;-75
2024/02/04 13:03:12;;;;;;;0.40;0.40;;;13.20;99.90;;;;;;7384399;19;20011;-76